sensor_id;sensor_type;location;lat;lon;timestamp;P1;durP1;ratioP1;P2;durP2;ratioP2
54947;SDS011;41113;41.882;12.530;2023-01-31T00:01:26;61.55;;;37.90;;
54947;SDS011;41113;41.882;12.530;2023-01-31T00:03:57;58.85;;;36.63;;
54947;SDS011;41113;41.882;12.530;2023-01-31T00:06:26;53.95;;;36.08;;
54947;SDS011;41113;41.882;12.530;2023-01-31T00:08:54;49.95;;;34.35;;
54947;SDS011;41113;41.882;12.530;2023-01-31T00:11:26;51.30;;;34.90;;
54947;SDS011;41113;41.882;12.530;2023-01-31T00:13:54;51.63;;;34.25;;
54947;SDS011;41113;41.882;12.530;2023-01-31T00:16:20;54.60;;;35.88;;
54947;SDS011;41113;41.882;12.530;2023-01-31T00:18:46;47.97;;;33.58;;
54947;SDS011;41113;41.882;12.530;2023-01-31T00:23:42;52.83;;;34.40;;
54947;SDS011;41113;41.882;12.530;2023-01-31T00:26:16;47.03;;;33.35;;
54947;SDS011;41113;41.882;12.530;2023-01-31T00:28:42;49.85;;;34.10;;
54947;SDS011;41113;41.882;12.530;2023-01-31T00:31:09;48.53;;;32.20;;
54947;SDS011;41113;41.882;12.530;2023-01-31T00:33:36;50.03;;;33.45;;
54947;SDS011;41113;41.882;12.530;2023-01-31T00:36:03;48.83;;;32.40;;
54947;SDS011;41113;41.882;12.530;2023-01-31T00:38:33;46.60;;;31.85;;
54947;SDS011;41113;41.882;12.530;2023-01-31T00:40:59;45.15;;;30.67;;
54947;SDS011;41113;41.882;12.530;2023-01-31T00:43:25;50.53;;;31.42;;
54947;SDS011;41113;41.882;12.530;2023-01-31T00:45:51;43.95;;;29.50;;
54947;SDS011;41113;41.882;12.530;2023-01-31T00:48:16;45.38;;;27.65;;
54947;SDS011;41113;41.882;12.530;2023-01-31T00:50:42;51.50;;;30.45;;
54947;SDS011;41113;41.882;12.530;2023-01-31T00:53:07;44.78;;;30.48;;
54947;SDS011;41113;41.882;12.530;2023-01-31T00:55:33;46.03;;;28.92;;
54947;SDS011;41113;41.882;12.530;2023-01-31T00:57:59;44.47;;;29.33;;
54947;SDS011;41113;41.882;12.530;2023-01-31T01:00:25;38.83;;;25.60;;
54947;SDS011;41113;41.882;12.530;2023-01-31T01:02:50;42.55;;;27.58;;
54947;SDS011;41113;41.882;12.530;2023-01-31T01:05:16;39.97;;;26.55;;
54947;SDS011;41113;41.882;12.530;2023-01-31T01:07:42;44.08;;;27.88;;
54947;SDS011;41113;41.882;12.530;2023-01-31T01:10:11;40.97;;;28.02;;
54947;SDS011;41113;41.882;12.530;2023-01-31T01:12:36;47.90;;;30.65;;
54947;SDS011;41113;41.882;12.530;2023-01-31T01:15:02;49.25;;;30.48;;
54947;SDS011;41113;41.882;12.530;2023-01-31T01:17:28;50.72;;;32.05;;
54947;SDS011;41113;41.882;12.530;2023-01-31T01:19:53;50.28;;;30.83;;
54947;SDS011;41113;41.882;12.530;2023-01-31T01:22:19;56.40;;;37.42;;
54947;SDS011;41113;41.882;12.530;2023-01-31T01:24:44;58.90;;;37.80;;
54947;SDS011;41113;41.882;12.530;2023-01-31T01:27:11;54.08;;;34.83;;
54947;SDS011;41113;41.882;12.530;2023-01-31T01:29:37;53.88;;;33.58;;
54947;SDS011;41113;41.882;12.530;2023-01-31T01:32:03;50.25;;;31.85;;
54947;SDS011;41113;41.882;12.530;2023-01-31T01:34:29;55.33;;;33.92;;
54947;SDS011;41113;41.882;12.530;2023-01-31T01:36:56;51.88;;;33.45;;
54947;SDS011;41113;41.882;12.530;2023-01-31T01:39:21;58.67;;;34.22;;
54947;SDS011;41113;41.882;12.530;2023-01-31T01:41:47;50.60;;;30.92;;
54947;SDS011;41113;41.882;12.530;2023-01-31T01:47:32;48.50;;;30.13;;
54947;SDS011;41113;41.882;12.530;2023-01-31T01:50:47;48.72;;;32.03;;
54947;SDS011;41113;41.882;12.530;2023-01-31T01:53:13;50.20;;;30.83;;
54947;SDS011;41113;41.882;12.530;2023-01-31T01:55:46;47.72;;;29.00;;
54947;SDS011;41113;41.882;12.530;2023-01-31T01:58:18;49.33;;;31.02;;
54947;SDS011;41113;41.882;12.530;2023-01-31T02:00:58;44.47;;;28.92;;
54947;SDS011;41113;41.882;12.530;2023-01-31T02:03:24;43.55;;;27.20;;
54947;SDS011;41113;41.882;12.530;2023-01-31T02:05:54;44.20;;;27.42;;
54947;SDS011;41113;41.882;12.530;2023-01-31T02:08:31;42.47;;;26.23;;
54947;SDS011;41113;41.882;12.530;2023-01-31T02:13:42;41.55;;;24.73;;
54947;SDS011;41113;41.882;12.530;2023-01-31T02:16:16;40.17;;;24.67;;
54947;SDS011;41113;41.882;12.530;2023-01-31T02:18:41;37.20;;;24.23;;
54947;SDS011;41113;41.882;12.530;2023-01-31T02:21:27;34.95;;;23.73;;
54947;SDS011;41113;41.882;12.530;2023-01-31T02:43:31;27.92;;;17.73;;
54947;SDS011;41113;41.882;12.530;2023-01-31T02:46:25;31.52;;;18.33;;
54947;SDS011;41113;41.882;12.530;2023-01-31T02:52:42;29.08;;;18.08;;
54947;SDS011;41113;41.882;12.530;2023-01-31T02:57:57;27.13;;;17.10;;
54947;SDS011;41113;41.882;12.530;2023-01-31T03:00:30;29.77;;;18.60;;
54947;SDS011;41113;41.882;12.530;2023-01-31T03:02:58;33.28;;;20.25;;
54947;SDS011;41113;41.882;12.530;2023-01-31T03:05:24;34.35;;;21.75;;
54947;SDS011;41113;41.882;12.530;2023-01-31T03:07:53;35.35;;;20.65;;
54947;SDS011;41113;41.882;12.530;2023-01-31T03:13:43;36.90;;;22.17;;
54947;SDS011;41113;41.882;12.530;2023-01-31T03:16:19;33.92;;;20.65;;
54947;SDS011;41113;41.882;12.530;2023-01-31T03:21:53;32.97;;;21.80;;
54947;SDS011;41113;41.882;12.530;2023-01-31T03:24:21;36.70;;;21.33;;
54947;SDS011;41113;41.882;12.530;2023-01-31T03:26:50;35.88;;;22.00;;
54947;SDS011;41113;41.882;12.530;2023-01-31T03:29:18;34.15;;;21.20;;
54947;SDS011;41113;41.882;12.530;2023-01-31T03:31:57;34.42;;;20.85;;
54947;SDS011;41113;41.882;12.530;2023-01-31T03:34:27;34.92;;;20.35;;
54947;SDS011;41113;41.882;12.530;2023-01-31T03:36:55;34.05;;;20.33;;
54947;SDS011;41113;41.882;12.530;2023-01-31T03:42:03;36.70;;;21.65;;
54947;SDS011;41113;41.882;12.530;2023-01-31T03:47:23;37.92;;;21.10;;
54947;SDS011;41113;41.882;12.530;2023-01-31T03:49:53;35.92;;;22.27;;
54947;SDS011;41113;41.882;12.530;2023-01-31T03:52:26;34.35;;;22.25;;
54947;SDS011;41113;41.882;12.530;2023-01-31T03:55:00;33.53;;;21.23;;
54947;SDS011;41113;41.882;12.530;2023-01-31T03:57:32;34.45;;;21.20;;
54947;SDS011;41113;41.882;12.530;2023-01-31T04:00:02;30.73;;;21.05;;
54947;SDS011;41113;41.882;12.530;2023-01-31T04:02:35;31.73;;;19.92;;
54947;SDS011;41113;41.882;12.530;2023-01-31T04:07:27;30.48;;;19.20;;
54947;SDS011;41113;41.882;12.530;2023-01-31T04:09:53;30.15;;;18.90;;
54947;SDS011;41113;41.882;12.530;2023-01-31T04:12:18;29.90;;;18.75;;
54947;SDS011;41113;41.882;12.530;2023-01-31T04:14:44;31.50;;;19.38;;
54947;SDS011;41113;41.882;12.530;2023-01-31T04:17:10;28.95;;;18.80;;
54947;SDS011;41113;41.882;12.530;2023-01-31T04:19:35;28.77;;;17.38;;
54947;SDS011;41113;41.882;12.530;2023-01-31T04:22:01;27.70;;;18.92;;
54947;SDS011;41113;41.882;12.530;2023-01-31T04:24:26;28.88;;;18.77;;
54947;SDS011;41113;41.882;12.530;2023-01-31T04:26:52;29.13;;;18.75;;
54947;SDS011;41113;41.882;12.530;2023-01-31T04:29:17;30.33;;;18.52;;
54947;SDS011;41113;41.882;12.530;2023-01-31T04:31:45;27.48;;;18.48;;
54947;SDS011;41113;41.882;12.530;2023-01-31T04:34:11;28.85;;;18.52;;
54947;SDS011;41113;41.882;12.530;2023-01-31T04:36:37;25.70;;;15.65;;
54947;SDS011;41113;41.882;12.530;2023-01-31T04:39:02;25.85;;;15.90;;
54947;SDS011;41113;41.882;12.530;2023-01-31T04:41:28;25.02;;;15.77;;
54947;SDS011;41113;41.882;12.530;2023-01-31T04:43:54;26.30;;;17.52;;
54947;SDS011;41113;41.882;12.530;2023-01-31T04:46:19;29.05;;;19.20;;
54947;SDS011;41113;41.882;12.530;2023-01-31T04:48:45;32.88;;;20.63;;
54947;SDS011;41113;41.882;12.530;2023-01-31T04:51:10;33.65;;;20.27;;
54947;SDS011;41113;41.882;12.530;2023-01-31T04:53:36;31.77;;;21.05;;
54947;SDS011;41113;41.882;12.530;2023-01-31T04:56:02;32.95;;;21.10;;
54947;SDS011;41113;41.882;12.530;2023-01-31T04:58:28;33.92;;;21.02;;
54947;SDS011;41113;41.882;12.530;2023-01-31T05:00:54;32.70;;;20.48;;
54947;SDS011;41113;41.882;12.530;2023-01-31T05:03:20;28.38;;;19.05;;
54947;SDS011;41113;41.882;12.530;2023-01-31T05:05:49;36.45;;;21.83;;
54947;SDS011;41113;41.882;12.530;2023-01-31T05:08:15;34.53;;;20.90;;
54947;SDS011;41113;41.882;12.530;2023-01-31T05:10:41;32.70;;;20.80;;
54947;SDS011;41113;41.882;12.530;2023-01-31T05:13:07;32.55;;;20.85;;
54947;SDS011;41113;41.882;12.530;2023-01-31T05:15:34;34.53;;;20.77;;
54947;SDS011;41113;41.882;12.530;2023-01-31T05:17:59;31.77;;;20.58;;
54947;SDS011;41113;41.882;12.530;2023-01-31T05:20:29;31.55;;;20.70;;
54947;SDS011;41113;41.882;12.530;2023-01-31T05:22:58;36.97;;;21.87;;
54947;SDS011;41113;41.882;12.530;2023-01-31T05:25:24;34.15;;;21.30;;
54947;SDS011;41113;41.882;12.530;2023-01-31T05:27:50;35.60;;;23.58;;
54947;SDS011;41113;41.882;12.530;2023-01-31T05:30:19;37.60;;;25.13;;
54947;SDS011;41113;41.882;12.530;2023-01-31T05:32:56;40.78;;;26.63;;
54947;SDS011;41113;41.882;12.530;2023-01-31T05:35:22;46.30;;;27.33;;
54947;SDS011;41113;41.882;12.530;2023-01-31T05:37:47;37.55;;;24.30;;
54947;SDS011;41113;41.882;12.530;2023-01-31T05:40:14;34.97;;;23.08;;
54947;SDS011;41113;41.882;12.530;2023-01-31T05:42:41;36.60;;;24.10;;
54947;SDS011;41113;41.882;12.530;2023-01-31T05:45:07;36.55;;;23.08;;
54947;SDS011;41113;41.882;12.530;2023-01-31T05:47:34;35.03;;;22.80;;
54947;SDS011;41113;41.882;12.530;2023-01-31T05:50:00;37.08;;;22.95;;
54947;SDS011;41113;41.882;12.530;2023-01-31T05:52:26;35.55;;;23.08;;
54947;SDS011;41113;41.882;12.530;2023-01-31T05:54:51;37.55;;;24.58;;
54947;SDS011;41113;41.882;12.530;2023-01-31T05:57:17;39.45;;;23.42;;
54947;SDS011;41113;41.882;12.530;2023-01-31T05:59:42;31.85;;;22.10;;
54947;SDS011;41113;41.882;12.530;2023-01-31T06:02:08;38.30;;;22.02;;
54947;SDS011;41113;41.882;12.530;2023-01-31T06:04:41;38.25;;;24.05;;
54947;SDS011;41113;41.882;12.530;2023-01-31T06:07:07;37.75;;;22.95;;
54947;SDS011;41113;41.882;12.530;2023-01-31T06:09:32;39.88;;;23.20;;
54947;SDS011;41113;41.882;12.530;2023-01-31T06:11:58;33.28;;;21.73;;
54947;SDS011;41113;41.882;12.530;2023-01-31T06:14:23;37.92;;;23.55;;
54947;SDS011;41113;41.882;12.530;2023-01-31T06:16:48;41.15;;;23.50;;
54947;SDS011;41113;41.882;12.530;2023-01-31T06:19:14;36.65;;;22.73;;
54947;SDS011;41113;41.882;12.530;2023-01-31T06:21:40;35.30;;;23.08;;
54947;SDS011;41113;41.882;12.530;2023-01-31T06:24:05;36.88;;;22.45;;
54947;SDS011;41113;41.882;12.530;2023-01-31T06:26:31;32.13;;;19.55;;
54947;SDS011;41113;41.882;12.530;2023-01-31T06:28:56;30.30;;;19.90;;
54947;SDS011;41113;41.882;12.530;2023-01-31T06:31:23;32.47;;;20.25;;
54947;SDS011;41113;41.882;12.530;2023-01-31T06:33:48;33.10;;;21.48;;
54947;SDS011;41113;41.882;12.530;2023-01-31T06:36:14;32.78;;;20.35;;
54947;SDS011;41113;41.882;12.530;2023-01-31T06:38:40;33.30;;;20.63;;
54947;SDS011;41113;41.882;12.530;2023-01-31T06:41:06;36.05;;;21.73;;
54947;SDS011;41113;41.882;12.530;2023-01-31T06:43:31;37.90;;;22.13;;
54947;SDS011;41113;41.882;12.530;2023-01-31T06:45:57;36.78;;;22.20;;
54947;SDS011;41113;41.882;12.530;2023-01-31T06:48:22;33.63;;;19.75;;
54947;SDS011;41113;41.882;12.530;2023-01-31T06:50:47;34.90;;;20.50;;
54947;SDS011;41113;41.882;12.530;2023-01-31T06:53:13;38.40;;;21.02;;
54947;SDS011;41113;41.882;12.530;2023-01-31T06:55:38;37.33;;;21.00;;
54947;SDS011;41113;41.882;12.530;2023-01-31T06:58:04;36.22;;;21.38;;
54947;SDS011;41113;41.882;12.530;2023-01-31T07:00:29;36.15;;;21.58;;
54947;SDS011;41113;41.882;12.530;2023-01-31T07:02:55;44.40;;;21.70;;
54947;SDS011;41113;41.882;12.530;2023-01-31T07:05:20;35.80;;;21.65;;
54947;SDS011;41113;41.882;12.530;2023-01-31T07:07:47;35.78;;;21.50;;
54947;SDS011;41113;41.882;12.530;2023-01-31T07:10:14;34.88;;;21.05;;
54947;SDS011;41113;41.882;12.530;2023-01-31T07:12:41;34.63;;;21.50;;
54947;SDS011;41113;41.882;12.530;2023-01-31T07:15:07;38.90;;;21.65;;
54947;SDS011;41113;41.882;12.530;2023-01-31T07:17:34;37.80;;;22.67;;
54947;SDS011;41113;41.882;12.530;2023-01-31T07:19:59;37.42;;;20.77;;
54947;SDS011;41113;41.882;12.530;2023-01-31T07:22:25;32.70;;;20.42;;
54947;SDS011;41113;41.882;12.530;2023-01-31T07:24:50;35.97;;;21.30;;
54947;SDS011;41113;41.882;12.530;2023-01-31T07:27:15;36.08;;;21.20;;
54947;SDS011;41113;41.882;12.530;2023-01-31T07:29:41;34.80;;;19.42;;
54947;SDS011;41113;41.882;12.530;2023-01-31T07:32:07;31.60;;;18.52;;
54947;SDS011;41113;41.882;12.530;2023-01-31T07:34:33;34.92;;;18.50;;
54947;SDS011;41113;41.882;12.530;2023-01-31T07:36:58;34.72;;;19.20;;
54947;SDS011;41113;41.882;12.530;2023-01-31T07:39:25;34.20;;;18.52;;
54947;SDS011;41113;41.882;12.530;2023-01-31T07:41:50;37.80;;;17.63;;
54947;SDS011;41113;41.882;12.530;2023-01-31T07:44:16;32.08;;;17.25;;
54947;SDS011;41113;41.882;12.530;2023-01-31T07:46:41;27.90;;;16.23;;
54947;SDS011;41113;41.882;12.530;2023-01-31T07:49:10;29.55;;;16.45;;
54947;SDS011;41113;41.882;12.530;2023-01-31T07:51:36;30.27;;;16.42;;
54947;SDS011;41113;41.882;12.530;2023-01-31T07:54:04;26.52;;;16.05;;
54947;SDS011;41113;41.882;12.530;2023-01-31T07:56:29;33.00;;;15.82;;
54947;SDS011;41113;41.882;12.530;2023-01-31T07:58:55;29.20;;;15.38;;
54947;SDS011;41113;41.882;12.530;2023-01-31T08:01:23;26.67;;;16.65;;
54947;SDS011;41113;41.882;12.530;2023-01-31T08:04:10;31.33;;;16.27;;
54947;SDS011;41113;41.882;12.530;2023-01-31T08:06:37;24.35;;;15.00;;
54947;SDS011;41113;41.882;12.530;2023-01-31T08:09:04;30.38;;;15.27;;
54947;SDS011;41113;41.882;12.530;2023-01-31T08:11:29;27.70;;;15.55;;
54947;SDS011;41113;41.882;12.530;2023-01-31T08:13:55;26.38;;;14.57;;
54947;SDS011;41113;41.882;12.530;2023-01-31T08:16:20;26.17;;;15.20;;
54947;SDS011;41113;41.882;12.530;2023-01-31T08:18:48;27.70;;;15.82;;
54947;SDS011;41113;41.882;12.530;2023-01-31T08:21:16;28.58;;;15.13;;
54947;SDS011;41113;41.882;12.530;2023-01-31T08:23:42;29.15;;;14.68;;
54947;SDS011;41113;41.882;12.530;2023-01-31T08:26:13;28.63;;;14.57;;
54947;SDS011;41113;41.882;12.530;2023-01-31T08:28:41;28.55;;;16.15;;
54947;SDS011;41113;41.882;12.530;2023-01-31T08:31:11;27.70;;;14.38;;
54947;SDS011;41113;41.882;12.530;2023-01-31T08:33:38;30.77;;;14.05;;
54947;SDS011;41113;41.882;12.530;2023-01-31T08:36:17;25.90;;;14.35;;
54947;SDS011;41113;41.882;12.530;2023-01-31T08:38:44;31.42;;;16.27;;
54947;SDS011;41113;41.882;12.530;2023-01-31T08:41:11;31.40;;;15.05;;
54947;SDS011;41113;41.882;12.530;2023-01-31T08:43:36;28.77;;;16.33;;
54947;SDS011;41113;41.882;12.530;2023-01-31T08:46:02;32.42;;;16.85;;
54947;SDS011;41113;41.882;12.530;2023-01-31T08:48:31;26.20;;;15.45;;
54947;SDS011;41113;41.882;12.530;2023-01-31T08:51:01;27.20;;;14.80;;
54947;SDS011;41113;41.882;12.530;2023-01-31T08:53:28;26.13;;;14.35;;
54947;SDS011;41113;41.882;12.530;2023-01-31T08:55:58;29.05;;;15.52;;
54947;SDS011;41113;41.882;12.530;2023-01-31T08:58:33;30.08;;;15.15;;
54947;SDS011;41113;41.882;12.530;2023-01-31T09:01:00;30.23;;;15.48;;
54947;SDS011;41113;41.882;12.530;2023-01-31T09:03:34;26.27;;;15.57;;
54947;SDS011;41113;41.882;12.530;2023-01-31T09:06:00;30.00;;;15.73;;
54947;SDS011;41113;41.882;12.530;2023-01-31T09:08:27;28.25;;;14.73;;
54947;SDS011;41113;41.882;12.530;2023-01-31T09:10:54;28.60;;;15.65;;
54947;SDS011;41113;41.882;12.530;2023-01-31T09:13:20;26.80;;;15.02;;
54947;SDS011;41113;41.882;12.530;2023-01-31T09:15:46;30.63;;;15.77;;
54947;SDS011;41113;41.882;12.530;2023-01-31T09:18:21;25.65;;;14.75;;
54947;SDS011;41113;41.882;12.530;2023-01-31T09:20:46;26.10;;;13.88;;
54947;SDS011;41113;41.882;12.530;2023-01-31T09:23:12;24.33;;;14.57;;
54947;SDS011;41113;41.882;12.530;2023-01-31T09:25:37;25.60;;;13.85;;
54947;SDS011;41113;41.882;12.530;2023-01-31T09:28:03;28.67;;;14.02;;
54947;SDS011;41113;41.882;12.530;2023-01-31T09:30:28;26.40;;;14.18;;
54947;SDS011;41113;41.882;12.530;2023-01-31T09:32:53;28.63;;;13.23;;
54947;SDS011;41113;41.882;12.530;2023-01-31T09:35:19;23.00;;;12.20;;
54947;SDS011;41113;41.882;12.530;2023-01-31T09:37:45;25.50;;;13.95;;
54947;SDS011;41113;41.882;12.530;2023-01-31T09:40:14;22.35;;;13.48;;
54947;SDS011;41113;41.882;12.530;2023-01-31T09:42:46;24.55;;;11.82;;
54947;SDS011;41113;41.882;12.530;2023-01-31T09:45:14;23.55;;;12.85;;
54947;SDS011;41113;41.882;12.530;2023-01-31T09:47:48;25.88;;;12.75;;
54947;SDS011;41113;41.882;12.530;2023-01-31T09:50:26;24.63;;;12.05;;
54947;SDS011;41113;41.882;12.530;2023-01-31T09:53:00;23.80;;;12.95;;
54947;SDS011;41113;41.882;12.530;2023-01-31T09:56:14;23.73;;;12.45;;
54947;SDS011;41113;41.882;12.530;2023-01-31T10:05:57;23.88;;;12.45;;
54947;SDS011;41113;41.882;12.530;2023-01-31T10:08:32;22.40;;;11.93;;
54947;SDS011;41113;41.882;12.530;2023-01-31T10:11:05;22.65;;;11.25;;
54947;SDS011;41113;41.882;12.530;2023-01-31T10:13:38;22.35;;;11.30;;
54947;SDS011;41113;41.882;12.530;2023-01-31T10:18:47;21.33;;;10.55;;
54947;SDS011;41113;41.882;12.530;2023-01-31T10:21:17;25.42;;;11.10;;
54947;SDS011;41113;41.882;12.530;2023-01-31T10:26:19;21.10;;;10.70;;
54947;SDS011;41113;41.882;12.530;2023-01-31T10:31:52;20.35;;;10.18;;
54947;SDS011;41113;41.882;12.530;2023-01-31T10:34:26;19.52;;;9.38;;
54947;SDS011;41113;41.882;12.530;2023-01-31T10:39:43;16.55;;;9.40;;
54947;SDS011;41113;41.882;12.530;2023-01-31T10:56:01;16.08;;;8.77;;
54947;SDS011;41113;41.882;12.530;2023-01-31T10:58:30;20.15;;;9.43;;
54947;SDS011;41113;41.882;12.530;2023-01-31T11:00:56;22.73;;;10.57;;
54947;SDS011;41113;41.882;12.530;2023-01-31T11:03:23;23.33;;;11.18;;
54947;SDS011;41113;41.882;12.530;2023-01-31T11:05:49;21.58;;;10.23;;
54947;SDS011;41113;41.882;12.530;2023-01-31T11:08:34;20.05;;;10.13;;
54947;SDS011;41113;41.882;12.530;2023-01-31T11:11:05;21.95;;;11.40;;
54947;SDS011;41113;41.882;12.530;2023-01-31T11:13:36;17.70;;;9.88;;
54947;SDS011;41113;41.882;12.530;2023-01-31T11:16:05;19.00;;;9.95;;
54947;SDS011;41113;41.882;12.530;2023-01-31T11:18:43;16.00;;;9.07;;
54947;SDS011;41113;41.882;12.530;2023-01-31T11:21:18;17.35;;;9.98;;
54947;SDS011;41113;41.882;12.530;2023-01-31T11:23:45;18.17;;;8.90;;
54947;SDS011;41113;41.882;12.530;2023-01-31T11:26:10;17.35;;;10.35;;
54947;SDS011;41113;41.882;12.530;2023-01-31T11:28:39;20.55;;;9.65;;
54947;SDS011;41113;41.882;12.530;2023-01-31T11:31:07;17.90;;;9.57;;
54947;SDS011;41113;41.882;12.530;2023-01-31T11:33:45;18.20;;;9.57;;
54947;SDS011;41113;41.882;12.530;2023-01-31T11:36:19;17.50;;;9.20;;
54947;SDS011;41113;41.882;12.530;2023-01-31T11:38:50;17.38;;;8.80;;
54947;SDS011;41113;41.882;12.530;2023-01-31T11:41:29;16.08;;;8.38;;
54947;SDS011;41113;41.882;12.530;2023-01-31T11:44:20;14.77;;;8.25;;
54947;SDS011;41113;41.882;12.530;2023-01-31T11:46:54;15.52;;;7.55;;
54947;SDS011;41113;41.882;12.530;2023-01-31T11:51:53;14.30;;;7.72;;
54947;SDS011;41113;41.882;12.530;2023-01-31T11:54:20;18.13;;;7.82;;
54947;SDS011;41113;41.882;12.530;2023-01-31T11:56:49;15.63;;;7.63;;
54947;SDS011;41113;41.882;12.530;2023-01-31T11:59:17;16.48;;;7.72;;
54947;SDS011;41113;41.882;12.530;2023-01-31T12:01:46;17.70;;;8.40;;
54947;SDS011;41113;41.882;12.530;2023-01-31T12:04:21;13.50;;;7.25;;
54947;SDS011;41113;41.882;12.530;2023-01-31T12:06:56;14.40;;;7.20;;
54947;SDS011;41113;41.882;12.530;2023-01-31T12:09:29;13.10;;;5.93;;
54947;SDS011;41113;41.882;12.530;2023-01-31T12:12:09;14.60;;;5.78;;
54947;SDS011;41113;41.882;12.530;2023-01-31T12:14:46;12.40;;;5.80;;
54947;SDS011;41113;41.882;12.530;2023-01-31T12:17:12;14.95;;;6.63;;
54947;SDS011;41113;41.882;12.530;2023-01-31T12:22:20;13.68;;;6.95;;
54947;SDS011;41113;41.882;12.530;2023-01-31T12:30:55;14.27;;;5.82;;
54947;SDS011;41113;41.882;12.530;2023-01-31T12:44:35;12.27;;;5.40;;
54947;SDS011;41113;41.882;12.530;2023-01-31T12:53:11;11.93;;;4.88;;
54947;SDS011;41113;41.882;12.530;2023-01-31T12:58:43;10.65;;;4.18;;
54947;SDS011;41113;41.882;12.530;2023-01-31T13:01:26;9.15;;;3.55;;
54947;SDS011;41113;41.882;12.530;2023-01-31T13:06:48;9.93;;;3.28;;
54947;SDS011;41113;41.882;12.530;2023-01-31T13:09:21;9.15;;;3.10;;
54947;SDS011;41113;41.882;12.530;2023-01-31T13:12:02;8.52;;;2.95;;
54947;SDS011;41113;41.882;12.530;2023-01-31T13:14:46;9.63;;;3.50;;
54947;SDS011;41113;41.882;12.530;2023-01-31T13:17:28;8.40;;;3.08;;
54947;SDS011;41113;41.882;12.530;2023-01-31T13:20:29;8.45;;;3.08;;
54947;SDS011;41113;41.882;12.530;2023-01-31T13:22:56;8.23;;;2.90;;
54947;SDS011;41113;41.882;12.530;2023-01-31T13:25:34;8.55;;;3.20;;
54947;SDS011;41113;41.882;12.530;2023-01-31T13:28:31;9.90;;;2.67;;
54947;SDS011;41113;41.882;12.530;2023-01-31T13:31:07;8.85;;;2.65;;
54947;SDS011;41113;41.882;12.530;2023-01-31T13:33:56;9.35;;;2.55;;
54947;SDS011;41113;41.882;12.530;2023-01-31T13:39:14;8.15;;;2.80;;
54947;SDS011;41113;41.882;12.530;2023-01-31T13:41:59;7.13;;;2.45;;
54947;SDS011;41113;41.882;12.530;2023-01-31T13:44:25;8.27;;;3.03;;
54947;SDS011;41113;41.882;12.530;2023-01-31T13:46:51;7.50;;;2.75;;
54947;SDS011;41113;41.882;12.530;2023-01-31T13:49:28;7.85;;;2.72;;
54947;SDS011;41113;41.882;12.530;2023-01-31T13:52:01;6.88;;;2.25;;
54947;SDS011;41113;41.882;12.530;2023-01-31T13:54:31;8.13;;;2.30;;
54947;SDS011;41113;41.882;12.530;2023-01-31T13:57:01;9.20;;;2.63;;
54947;SDS011;41113;41.882;12.530;2023-01-31T13:59:30;6.97;;;2.40;;
54947;SDS011;41113;41.882;12.530;2023-01-31T14:01:58;9.25;;;2.55;;
54947;SDS011;41113;41.882;12.530;2023-01-31T14:04:27;8.57;;;3.00;;
54947;SDS011;41113;41.882;12.530;2023-01-31T14:14:41;10.18;;;3.22;;
54947;SDS011;41113;41.882;12.530;2023-01-31T14:22:31;5.90;;;2.30;;
54947;SDS011;41113;41.882;12.530;2023-01-31T14:30:20;6.80;;;2.58;;
54947;SDS011;41113;41.882;12.530;2023-01-31T14:33:07;11.00;;;2.80;;
54947;SDS011;41113;41.882;12.530;2023-01-31T14:36:03;8.05;;;2.60;;
54947;SDS011;41113;41.882;12.530;2023-01-31T14:39:21;8.98;;;2.40;;
54947;SDS011;41113;41.882;12.530;2023-01-31T14:42:09;8.77;;;2.90;;
54947;SDS011;41113;41.882;12.530;2023-01-31T14:44:51;9.05;;;3.33;;
54947;SDS011;41113;41.882;12.530;2023-01-31T14:48:01;13.20;;;3.80;;
54947;SDS011;41113;41.882;12.530;2023-01-31T14:50:33;10.68;;;3.38;;
54947;SDS011;41113;41.882;12.530;2023-01-31T14:58:51;11.18;;;3.33;;
54947;SDS011;41113;41.882;12.530;2023-01-31T15:01:19;12.40;;;3.50;;
54947;SDS011;41113;41.882;12.530;2023-01-31T15:03:52;8.85;;;3.13;;
54947;SDS011;41113;41.882;12.530;2023-01-31T15:06:23;9.70;;;3.55;;
54947;SDS011;41113;41.882;12.530;2023-01-31T15:11:46;11.07;;;3.70;;
54947;SDS011;41113;41.882;12.530;2023-01-31T15:16:46;10.25;;;3.28;;
54947;SDS011;41113;41.882;12.530;2023-01-31T15:19:24;11.05;;;3.53;;
54947;SDS011;41113;41.882;12.530;2023-01-31T15:21:54;11.73;;;3.47;;
54947;SDS011;41113;41.882;12.530;2023-01-31T15:25:19;9.45;;;3.90;;
54947;SDS011;41113;41.882;12.530;2023-01-31T15:27:29;11.30;;;3.85;;
54947;SDS011;41113;41.882;12.530;2023-01-31T15:32:44;13.80;;;3.72;;
54947;SDS011;41113;41.882;12.530;2023-01-31T15:35:30;12.77;;;4.00;;
54947;SDS011;41113;41.882;12.530;2023-01-31T15:41:06;13.63;;;3.97;;
54947;SDS011;41113;41.882;12.530;2023-01-31T15:43:31;11.10;;;4.25;;
54947;SDS011;41113;41.882;12.530;2023-01-31T15:45:57;11.43;;;4.35;;
54947;SDS011;41113;41.882;12.530;2023-01-31T15:48:22;10.63;;;4.13;;
54947;SDS011;41113;41.882;12.530;2023-01-31T15:50:51;12.52;;;4.13;;
54947;SDS011;41113;41.882;12.530;2023-01-31T15:53:17;11.10;;;4.03;;
54947;SDS011;41113;41.882;12.530;2023-01-31T15:55:45;10.68;;;4.30;;
54947;SDS011;41113;41.882;12.530;2023-01-31T15:58:16;10.65;;;4.00;;
54947;SDS011;41113;41.882;12.530;2023-01-31T16:00:47;9.75;;;3.92;;
54947;SDS011;41113;41.882;12.530;2023-01-31T16:03:19;11.70;;;3.53;;
54947;SDS011;41113;41.882;12.530;2023-01-31T16:05:47;11.70;;;3.75;;
54947;SDS011;41113;41.882;12.530;2023-01-31T16:08:20;10.73;;;4.40;;
54947;SDS011;41113;41.882;12.530;2023-01-31T16:11:06;12.95;;;4.15;;
54947;SDS011;41113;41.882;12.530;2023-01-31T16:13:34;10.23;;;3.90;;
54947;SDS011;41113;41.882;12.530;2023-01-31T16:16:03;10.38;;;4.32;;
54947;SDS011;41113;41.882;12.530;2023-01-31T16:18:29;16.10;;;5.18;;
54947;SDS011;41113;41.882;12.530;2023-01-31T16:20:55;11.63;;;4.40;;
54947;SDS011;41113;41.882;12.530;2023-01-31T16:28:43;10.27;;;4.53;;
54947;SDS011;41113;41.882;12.530;2023-01-31T16:31:14;12.43;;;4.75;;
54947;SDS011;41113;41.882;12.530;2023-01-31T16:33:52;11.90;;;4.72;;
54947;SDS011;41113;41.882;12.530;2023-01-31T16:36:26;14.40;;;5.40;;
54947;SDS011;41113;41.882;12.530;2023-01-31T16:38:56;13.00;;;5.30;;
54947;SDS011;41113;41.882;12.530;2023-01-31T16:44:15;14.90;;;5.68;;
54947;SDS011;41113;41.882;12.530;2023-01-31T16:46:46;12.25;;;5.18;;
54947;SDS011;41113;41.882;12.530;2023-01-31T16:49:18;13.85;;;5.78;;
54947;SDS011;41113;41.882;12.530;2023-01-31T16:51:47;15.43;;;5.47;;
54947;SDS011;41113;41.882;12.530;2023-01-31T16:56:42;12.75;;;5.93;;
54947;SDS011;41113;41.882;12.530;2023-01-31T17:02:41;14.15;;;6.22;;
54947;SDS011;41113;41.882;12.530;2023-01-31T17:04:50;15.00;;;6.63;;
54947;SDS011;41113;41.882;12.530;2023-01-31T17:07:23;14.98;;;7.20;;
54947;SDS011;41113;41.882;12.530;2023-01-31T17:09:54;12.20;;;5.60;;
54947;SDS011;41113;41.882;12.530;2023-01-31T17:12:29;16.00;;;6.90;;
54947;SDS011;41113;41.882;12.530;2023-01-31T17:14:56;15.38;;;6.55;;
54947;SDS011;41113;41.882;12.530;2023-01-31T17:17:29;20.90;;;7.07;;